createdAt,value
2019-03-25T00:49:29.395Z,10.50
2019-03-25T00:52:00.493Z,11.30
2019-03-25T00:54:31.742Z,15.00
2019-03-25T00:57:03.748Z,22.30
2019-03-25T00:59:35.143Z,29.20
2019-03-25T01:02:06.673Z,35.23
2019-03-25T01:04:37.815Z,27.07
2019-03-25T01:07:08.899Z,23.27
2019-03-25T01:09:39.637Z,30.73
2019-03-25T01:12:10.695Z,21.40
2019-03-25T01:14:41.383Z,17.57
2019-03-25T01:17:12.832Z,15.43
2019-03-25T01:19:43.668Z,14.53
2019-03-25T01:22:14.345Z,14.20
2019-03-25T01:24:45.125Z,14.07
2019-03-25T01:27:16.203Z,12.23
2019-03-25T01:29:47.124Z,9.70
2019-03-25T01:32:17.845Z,9.13
2019-03-25T01:34:48.969Z,9.87
2019-03-25T01:37:20.011Z,8.80
2019-03-25T01:39:50.749Z,8.43
2019-03-25T01:42:21.820Z,7.57
2019-03-25T01:44:53.102Z,8.63
2019-03-25T01:47:24.150Z,8.63
2019-03-25T01:49:56.297Z,8.67
2019-03-25T01:52:27.754Z,9.70
2019-03-25T01:54:59.076Z,8.07
2019-03-25T01:57:30.396Z,9.67
2019-03-25T02:00:01.474Z,9.33
2019-03-25T02:02:32.501Z,8.70
2019-03-25T02:05:03.999Z,9.70
2019-03-25T02:07:35.285Z,10.73
2019-03-25T02:10:07.800Z,9.53
2019-03-25T02:12:39.303Z,9.87
2019-03-25T02:15:10.370Z,8.37
2019-03-25T02:17:41.275Z,10.33
2019-03-25T02:20:11.772Z,9.50
2019-03-25T02:22:43.268Z,9.40
2019-03-25T02:25:24.930Z,9.00
2019-03-25T02:27:47.265Z,9.60
2019-03-25T02:30:18.315Z,9.40
2019-03-25T02:32:49.084Z,9.27
2019-03-25T02:35:19.926Z,8.93
2019-03-25T02:37:50.684Z,10.33
2019-03-25T02:40:21.632Z,9.20
2019-03-25T02:42:52.708Z,10.20
2019-03-25T02:45:23.470Z,8.63
2019-03-25T02:47:54.151Z,9.17
2019-03-25T02:50:24.821Z,8.50
2019-03-25T02:52:55.566Z,9.20
2019-03-25T02:55:40.809Z,8.63
2019-03-25T02:57:59.325Z,10.93
2019-03-25T03:00:33.701Z,9.80
2019-03-25T03:03:05.912Z,9.37
2019-03-25T03:05:37.927Z,10.33
2019-03-25T03:08:08.651Z,10.23
2019-03-25T03:10:39.565Z,10.60
2019-03-25T03:13:10.571Z,11.87
2019-03-25T03:15:41.418Z,12.77
2019-03-25T03:18:12.147Z,11.47
2019-03-25T03:20:42.887Z,14.17
2019-03-25T03:23:13.887Z,13.00
2019-03-25T03:25:56.266Z,13.00
2019-03-25T03:28:17.337Z,11.87
2019-03-25T03:30:49.547Z,13.93
2019-03-25T03:33:20.665Z,13.27
2019-03-25T03:35:51.760Z,14.53
2019-03-25T03:38:22.920Z,17.77
2019-03-25T03:40:55.111Z,16.07
2019-03-25T03:43:26.336Z,14.60
2019-03-25T03:45:57.302Z,12.23
2019-03-25T03:48:27.853Z,12.53
2019-03-25T03:50:59.229Z,14.67
2019-03-25T03:53:30.214Z,14.17
2019-03-25T03:56:13.076Z,14.70
2019-03-25T03:58:34.878Z,14.40
2019-03-25T04:01:05.578Z,17.73
2019-03-25T04:03:36.692Z,18.93
2019-03-25T04:06:08.066Z,16.40
2019-03-25T04:08:39.152Z,15.73
2019-03-25T04:11:10.193Z,17.03
2019-03-25T04:13:41.334Z,16.60
2019-03-25T04:16:12.733Z,15.47
2019-03-25T04:18:43.619Z,18.67
2019-03-25T04:21:14.803Z,16.87
2019-03-25T04:23:46.530Z,15.17
2019-03-25T04:26:28.347Z,15.63
2019-03-25T04:28:50.279Z,14.27
2019-03-25T04:31:21.369Z,12.23
2019-03-25T04:33:52.383Z,10.93
2019-03-25T04:36:23.420Z,10.90
2019-03-25T04:38:54.486Z,9.70
2019-03-25T04:41:25.393Z,9.57
2019-03-25T04:43:56.481Z,9.77
2019-03-25T04:46:27.432Z,11.43
2019-03-25T04:48:58.600Z,11.70
2019-03-25T04:51:29.680Z,14.40
2019-03-25T04:54:00.604Z,16.93
2019-03-25T04:56:39.532Z,14.10
2019-03-25T04:59:05.478Z,15.13
2019-03-25T05:01:36.916Z,16.10
2019-03-25T05:04:09.062Z,16.53
2019-03-25T05:06:41.073Z,16.67
2019-03-25T05:09:12.380Z,15.07
2019-03-25T05:11:43.271Z,15.53
2019-03-25T05:14:14.443Z,16.77
2019-03-25T05:16:45.577Z,16.13
2019-03-25T05:19:16.601Z,16.80
2019-03-25T05:21:48.218Z,18.63
2019-03-25T05:24:19.312Z,18.63
2019-03-25T05:26:51.420Z,19.80
2019-03-25T05:29:22.657Z,19.60
2019-03-25T05:31:53.533Z,19.00
2019-03-25T05:34:24.818Z,19.07
2019-03-25T05:36:55.824Z,20.03
2019-03-25T05:39:26.859Z,20.90
2019-03-25T05:41:57.766Z,19.67
2019-03-25T05:44:28.906Z,18.30
2019-03-25T05:47:00.226Z,20.57
2019-03-25T05:49:31.003Z,22.33
2019-03-25T05:52:02.552Z,19.60
2019-03-25T05:54:33.726Z,18.33
2019-03-25T05:57:04.807Z,18.13
2019-03-25T05:59:36.006Z,15.40
2019-03-25T06:02:06.969Z,13.23
2019-03-25T06:04:37.731Z,11.13
2019-03-25T06:07:08.731Z,9.87
2019-03-25T06:09:40.020Z,9.00
2019-03-25T06:12:10.922Z,7.97
2019-03-25T06:14:43.353Z,7.10
2019-03-25T06:17:14.154Z,7.83
2019-03-25T06:19:44.819Z,7.63
2019-03-25T06:22:16.786Z,7.03
2019-03-25T06:24:48.135Z,7.73
2019-03-25T06:27:19.302Z,9.53
2019-03-25T06:29:50.532Z,7.83
2019-03-25T06:32:21.659Z,7.53
2019-03-25T06:34:52.541Z,7.93
2019-03-25T06:37:23.859Z,7.57
2019-03-25T06:39:55.052Z,7.80
2019-03-25T06:42:26.017Z,8.80
2019-03-25T06:44:56.976Z,7.83
2019-03-25T06:47:27.954Z,7.80
2019-03-25T06:49:59.027Z,8.57
2019-03-25T06:52:30.176Z,8.20
2019-03-25T06:55:01.125Z,7.83
2019-03-25T06:57:33.209Z,7.17
2019-03-25T07:00:07.732Z,9.13
2019-03-25T07:02:39.329Z,8.30
2019-03-25T07:05:10.672Z,8.43
2019-03-25T07:07:41.758Z,7.40
2019-03-25T07:10:12.849Z,7.40
2019-03-25T07:12:44.601Z,7.20
2019-03-25T07:15:18.852Z,7.30
2019-03-25T07:17:50.520Z,6.93
2019-03-25T07:20:25.535Z,7.70
2019-03-25T07:22:56.667Z,6.57
2019-03-25T07:25:27.638Z,6.93
2019-03-25T07:27:58.807Z,6.60
2019-03-25T07:30:29.457Z,6.30
2019-03-25T07:33:00.856Z,7.83
2019-03-25T07:35:31.680Z,6.67
2019-03-25T07:38:02.985Z,6.70
2019-03-25T07:40:34.341Z,6.63
2019-03-25T07:43:05.381Z,6.90
2019-03-25T07:45:36.560Z,5.80
2019-03-25T07:48:07.821Z,5.83
2019-03-25T07:50:38.859Z,6.83
2019-03-25T07:53:09.819Z,5.97
2019-03-25T07:55:41.424Z,5.50
2019-03-25T07:58:12.433Z,7.40
2019-03-25T08:00:43.938Z,6.43
2019-03-25T08:03:15.501Z,6.30
2019-03-25T08:05:47.398Z,6.93
2019-03-25T08:08:18.481Z,6.07
2019-03-25T08:10:50.392Z,6.03
2019-03-25T08:13:21.488Z,6.73
2019-03-25T08:15:52.939Z,5.80
2019-03-25T08:18:23.922Z,6.77
2019-03-25T08:20:54.858Z,5.80
2019-03-25T08:23:25.559Z,6.00
2019-03-25T08:25:57.319Z,5.93
2019-03-25T08:28:28.517Z,6.07
2019-03-25T08:31:00.398Z,6.77
2019-03-25T08:33:31.478Z,5.93
2019-03-25T08:36:03.621Z,5.97
2019-03-25T08:38:34.517Z,5.87
2019-03-25T08:41:06.438Z,5.57
2019-03-25T08:43:37.601Z,6.33
2019-03-25T08:46:08.678Z,6.03
2019-03-25T08:48:39.759Z,6.07
2019-03-25T08:51:11.197Z,8.50
2019-03-25T08:53:42.055Z,5.63
2019-03-25T08:56:13.679Z,7.37
2019-03-25T08:58:45.518Z,6.50
2019-03-25T09:01:16.398Z,7.03
2019-03-25T09:03:49.016Z,5.37
2019-03-25T09:06:23.238Z,7.13
2019-03-25T09:08:54.397Z,5.67
2019-03-25T09:11:25.806Z,5.83
2019-03-25T09:13:57.356Z,6.47
2019-03-25T09:16:29.010Z,6.57
2019-03-25T09:19:00.585Z,5.77
2019-03-25T09:21:31.720Z,6.10
2019-03-25T09:24:02.355Z,6.10
2019-03-25T09:26:33.687Z,6.67
2019-03-25T09:29:04.548Z,5.30
2019-03-25T09:31:37.035Z,5.37
2019-03-25T09:34:09.308Z,6.00
2019-03-25T09:36:40.725Z,6.27
2019-03-25T09:39:11.457Z,5.23
2019-03-25T09:41:43.831Z,6.23
2019-03-25T09:44:15.656Z,5.10
2019-03-25T09:46:47.215Z,4.40
2019-03-25T09:49:19.436Z,4.97
2019-03-25T09:51:52.897Z,4.47
2019-03-25T09:54:24.030Z,4.43
2019-03-25T09:56:55.841Z,4.03
2019-03-25T09:59:27.267Z,4.30
2019-03-25T10:01:58.449Z,4.53
2019-03-25T10:04:29.658Z,4.85
2019-03-25T10:07:02.127Z,4.50
2019-03-25T10:09:34.769Z,5.00
2019-03-25T10:12:06.138Z,4.62
2019-03-25T10:14:38.417Z,4.37
2019-03-25T10:17:09.147Z,4.13
2019-03-25T10:19:40.096Z,5.07
2019-03-25T10:22:11.116Z,5.07
2019-03-25T10:24:42.157Z,4.67
2019-03-25T10:27:12.631Z,4.92
2019-03-25T10:29:43.753Z,5.07
2019-03-25T10:32:14.709Z,4.83
2019-03-25T10:34:45.887Z,5.65
2019-03-25T10:37:17.080Z,4.00
2019-03-25T10:39:47.691Z,4.83
2019-03-25T10:42:19.287Z,5.00
2019-03-25T10:44:51.153Z,4.60
2019-03-25T10:47:21.789Z,4.72
2019-03-25T10:49:52.445Z,3.98
2019-03-25T10:52:23.839Z,3.85
2019-03-25T10:57:26.304Z,4.62
2019-03-25T10:59:58.666Z,4.87
2019-03-25T11:02:30.071Z,4.97
2019-03-25T11:05:01.549Z,4.00
2019-03-25T11:07:33.109Z,3.97
2019-03-25T11:10:07.251Z,4.37
2019-03-25T11:12:38.761Z,4.67
2019-03-25T11:15:10.169Z,5.23
2019-03-25T11:17:41.128Z,3.80
2019-03-25T11:20:14.347Z,4.33
2019-03-25T11:22:46.109Z,4.20
2019-03-25T11:25:17.736Z,2.97
2019-03-25T11:27:54.372Z,2.72
2019-03-25T11:30:25.586Z,2.45
2019-03-25T11:32:57.166Z,3.13
2019-03-25T11:35:28.210Z,1.87
2019-03-25T11:37:59.788Z,2.67
2019-03-25T11:40:31.789Z,3.63
2019-03-25T11:43:02.550Z,2.63
2019-03-25T11:45:34.691Z,2.87
2019-03-25T11:48:06.549Z,3.67
2019-03-25T11:50:37.673Z,2.72
2019-03-25T11:53:08.792Z,3.07
2019-03-25T11:55:39.495Z,3.20
2019-03-25T11:58:11.209Z,3.60
2019-03-25T12:00:42.842Z,4.13
2019-03-25T12:03:14.074Z,3.50
2019-03-25T12:05:44.709Z,3.30
2019-03-25T12:08:16.203Z,3.40
2019-03-25T12:10:46.714Z,3.37
2019-03-25T12:13:17.523Z,2.77
2019-03-25T12:15:48.650Z,3.23
2019-03-25T12:18:19.193Z,2.90
2019-03-25T12:20:50.575Z,2.37
2019-03-25T12:23:26.560Z,2.30
2019-03-25T12:25:57.909Z,2.60
2019-03-25T12:28:28.731Z,2.80
2019-03-25T12:30:59.211Z,2.97
2019-03-25T12:33:29.652Z,3.20
2019-03-25T12:36:00.178Z,3.43
2019-03-25T12:38:30.677Z,3.17
2019-03-25T12:41:01.487Z,2.70
2019-03-25T12:43:31.845Z,2.63
2019-03-25T12:46:04.620Z,2.73
2019-03-25T12:48:35.094Z,2.13
2019-03-25T12:51:06.034Z,2.43
2019-03-25T12:53:36.725Z,2.13
2019-03-25T12:56:07.263Z,4.40
2019-03-25T12:58:38.588Z,3.37
2019-03-25T13:01:10.063Z,1.73
2019-03-25T13:03:40.887Z,2.87
2019-03-25T13:06:11.664Z,2.27
2019-03-25T13:08:42.139Z,2.93
2019-03-25T13:11:12.550Z,2.37
2019-03-25T13:13:42.930Z,1.87
2019-03-25T13:16:13.397Z,2.50
2019-03-25T13:18:44.029Z,2.40
2019-03-25T13:21:14.497Z,1.57
2019-03-25T13:23:44.956Z,2.37
2019-03-25T13:26:15.365Z,2.47
2019-03-25T13:28:45.837Z,2.80
2019-03-25T13:31:16.379Z,3.73
2019-03-25T13:33:47.054Z,3.40
2019-03-25T13:36:17.669Z,3.13
2019-03-25T13:38:48.093Z,2.77
2019-03-25T13:41:18.490Z,2.40
2019-03-25T13:43:58.565Z,3.57
2019-03-25T13:46:44.517Z,2.83
2019-03-25T13:49:17.434Z,3.13
2019-03-25T13:51:48.069Z,3.87
2019-03-25T13:54:18.485Z,4.20
2019-03-25T13:56:48.935Z,4.03
2019-03-25T13:59:20.229Z,4.23
2019-03-25T14:01:52.276Z,3.67
2019-03-25T14:04:23.591Z,4.03
2019-03-25T14:06:55.130Z,4.70
2019-03-25T14:09:26.530Z,4.53
2019-03-25T14:11:57.790Z,4.70
2019-03-25T14:14:28.485Z,4.03
2019-03-25T14:17:00.249Z,4.73
2019-03-25T14:19:31.879Z,5.43
2019-03-25T14:22:03.008Z,5.17
2019-03-25T14:24:34.981Z,4.73
2019-03-25T14:27:05.635Z,5.60
2019-03-25T14:29:37.333Z,4.60
2019-03-25T14:32:07.864Z,6.10
2019-03-25T14:34:44.914Z,5.03
2019-03-25T14:37:14.716Z,4.97
2019-03-25T14:39:46.191Z,4.93
2019-03-25T14:42:20.316Z,4.80
2019-03-25T14:44:51.069Z,5.60
2019-03-25T14:47:26.749Z,4.47
2019-03-25T14:49:58.535Z,4.70
2019-03-25T14:52:29.581Z,5.37
2019-03-25T14:55:00.968Z,5.20
2019-03-25T14:57:31.925Z,4.80
2019-03-25T15:00:07.905Z,6.83
2019-03-25T15:02:38.690Z,5.93
2019-03-25T15:05:09.730Z,5.83
2019-03-25T15:07:42.221Z,2.43
2019-03-25T15:10:13.340Z,2.47
2019-03-25T15:12:45.551Z,2.40
2019-03-25T15:15:16.869Z,1.40
2019-03-25T15:17:47.654Z,1.33
2019-03-25T15:20:18.104Z,1.73
2019-03-25T15:22:51.444Z,2.10
2019-03-25T15:25:23.593Z,2.63
2019-03-25T15:27:54.632Z,2.97
2019-03-25T15:30:35.417Z,4.07
2019-03-25T15:33:00.057Z,3.30
2019-03-25T15:35:32.951Z,3.17
2019-03-25T15:38:05.194Z,3.37
2019-03-25T15:40:36.825Z,3.47
2019-03-25T15:43:08.029Z,4.20
2019-03-25T15:45:38.871Z,3.80
2019-03-25T15:48:10.710Z,4.17
2019-03-25T15:50:42.261Z,5.50
2019-03-25T15:53:13.752Z,4.37
2019-03-25T15:55:44.540Z,4.80
2019-03-25T15:58:25.633Z,4.77
2019-03-25T16:00:49.121Z,4.20
2019-03-25T16:03:19.999Z,4.27
2019-03-25T16:05:51.360Z,4.30
2019-03-25T16:08:22.166Z,4.00
2019-03-25T16:10:53.676Z,3.93
2019-03-25T16:13:24.820Z,4.57
2019-03-25T16:15:56.252Z,6.43
2019-03-25T16:18:30.830Z,11.33
2019-03-25T16:21:02.413Z,11.07
2019-03-25T16:23:33.791Z,8.30
2019-03-25T16:26:08.568Z,5.73
2019-03-25T16:28:40.061Z,15.10
2019-03-25T16:31:10.845Z,6.00
2019-03-25T16:33:41.243Z,5.17
2019-03-25T16:36:15.315Z,3.93
2019-03-25T16:38:45.939Z,4.23
2019-03-25T16:41:17.471Z,4.53
2019-03-25T16:43:48.087Z,5.10
2019-03-25T16:46:19.112Z,4.67
2019-03-25T16:48:50.229Z,5.03
2019-03-25T16:51:21.029Z,4.17
2019-03-25T16:53:51.722Z,5.13
2019-03-25T16:56:27.956Z,4.37
2019-03-25T16:59:05.841Z,4.57
2019-03-25T17:01:38.651Z,4.27
2019-03-25T17:04:10.111Z,5.07
2019-03-25T17:06:40.959Z,4.83
2019-03-25T17:09:12.033Z,4.10
2019-03-25T17:11:44.212Z,5.73
2019-03-25T17:14:15.409Z,5.07
2019-03-25T17:16:46.597Z,4.60
2019-03-25T17:19:19.110Z,4.57
2019-03-25T17:21:58.090Z,4.90
2019-03-25T17:24:32.368Z,14.30
2019-03-25T17:27:14.871Z,5.57
2019-03-25T17:29:51.271Z,5.23
2019-03-25T17:32:22.150Z,5.73
2019-03-25T17:34:56.533Z,4.87
2019-03-25T17:37:27.491Z,5.03
2019-03-25T17:39:59.023Z,4.80
2019-03-25T17:42:31.389Z,5.53
2019-03-25T17:45:02.275Z,4.40
2019-03-25T17:47:34.697Z,4.03
2019-03-25T17:50:09.010Z,5.07
2019-03-25T17:52:40.492Z,3.97
2019-03-25T17:55:11.672Z,8.07
2019-03-25T17:57:42.910Z,16.40
2019-03-25T18:00:15.621Z,6.07
2019-03-25T18:02:48.516Z,8.83
2019-03-25T18:05:20.240Z,6.47
2019-03-25T18:07:51.599Z,4.40
2019-03-25T18:10:23.270Z,7.43
2019-03-25T18:12:54.058Z,7.87
2019-03-25T18:15:25.358Z,6.37
2019-03-25T18:17:56.853Z,6.50
2019-03-25T18:20:36.532Z,3.70
2019-03-25T18:23:07.198Z,10.53
2019-03-25T18:25:38.106Z,9.67
2019-03-25T18:28:08.618Z,4.70
2019-03-25T18:30:39.024Z,6.80
2019-03-25T18:33:09.550Z,8.67
2019-03-25T18:35:40.753Z,14.13
2019-03-25T18:38:12.611Z,5.90
2019-03-25T18:40:44.244Z,9.40
2019-03-25T18:43:16.146Z,6.47
2019-03-25T18:45:47.534Z,3.93
2019-03-25T18:48:18.320Z,4.57
2019-03-25T18:50:49.402Z,4.90
2019-03-25T18:53:21.187Z,4.90
2019-03-25T18:55:52.242Z,4.23
2019-03-25T18:58:23.851Z,6.33
2019-03-25T19:00:56.630Z,4.57
2019-03-25T19:03:27.641Z,4.00
2019-03-25T19:06:00.297Z,3.67
2019-03-25T19:08:31.941Z,4.97
2019-03-25T19:11:04.266Z,8.83
2019-03-25T19:13:35.709Z,4.30
2019-03-25T19:16:07.086Z,19.57
2019-03-25T19:18:38.176Z,10.07
2019-03-25T19:21:08.829Z,6.60
2019-03-25T19:23:40.705Z,10.50
2019-03-25T19:26:12.332Z,4.50
2019-03-25T19:28:45.791Z,5.47
2019-03-25T19:31:23.035Z,5.40
2019-03-25T19:33:53.715Z,24.20
2019-03-25T19:36:24.166Z,14.30
2019-03-25T19:38:54.584Z,10.47
2019-03-25T19:41:32.222Z,8.33
2019-03-25T19:43:57.535Z,21.40
2019-03-25T19:46:28.004Z,10.80
2019-03-25T19:48:58.452Z,5.63
2019-03-25T19:51:28.843Z,6.00
2019-03-25T19:53:59.309Z,14.27
2019-03-25T19:56:50.850Z,12.13
2019-03-25T19:59:33.687Z,7.57
2019-03-25T20:02:05.671Z,28.50
2019-03-25T20:04:37.509Z,17.57
2019-03-25T20:07:10.193Z,17.90
2019-03-25T20:09:42.606Z,19.93
2019-03-25T20:12:14.516Z,13.17
2019-03-25T20:14:46.771Z,6.53
2019-03-25T20:17:20.474Z,6.80
2019-03-25T20:19:53.888Z,11.67
2019-03-25T20:22:27.415Z,11.97
2019-03-25T20:24:59.833Z,7.37
2019-03-25T20:27:33.234Z,5.20
2019-03-25T20:30:10.238Z,5.63
2019-03-25T20:32:44.128Z,6.27
2019-03-25T20:35:17.960Z,5.70
2019-03-25T20:37:51.001Z,6.30
2019-03-25T20:40:32.936Z,8.27
2019-03-25T20:43:06.015Z,5.53
2019-03-25T20:45:38.159Z,4.60
2019-03-25T20:48:10.187Z,5.43
2019-03-25T20:50:41.936Z,5.90
2019-03-25T20:53:14.190Z,16.23
2019-03-25T20:55:47.225Z,9.30
2019-03-25T20:58:19.968Z,6.70
2019-03-25T21:00:54.727Z,8.07
2019-03-25T21:03:26.622Z,13.23
2019-03-25T21:05:58.262Z,6.70
2019-03-25T21:08:30.579Z,13.70
2019-03-25T21:11:04.442Z,9.07
2019-03-25T21:13:36.428Z,17.97
2019-03-25T21:16:08.159Z,15.37
2019-03-25T21:18:42.744Z,7.27
2019-03-25T21:21:22.243Z,10.20
2019-03-25T21:23:58.037Z,13.63
2019-03-25T21:26:45.531Z,24.00
2019-03-25T21:29:22.892Z,10.60
2019-03-25T21:31:55.749Z,14.97
2019-03-25T21:34:27.931Z,10.67
2019-03-25T21:36:58.428Z,14.40
2019-03-25T21:39:29.531Z,6.97
2019-03-25T21:42:00.546Z,11.57
2019-03-25T21:44:31.752Z,15.47
2019-03-25T21:47:04.264Z,21.77
2019-03-25T21:49:35.496Z,17.93
2019-03-25T21:52:06.357Z,11.37
2019-03-25T21:54:37.770Z,10.47
2019-03-25T21:57:09.136Z,27.07
2019-03-25T21:59:40.559Z,15.77
2019-03-25T23:02:56.345Z,8.80
2019-03-25T23:05:27.505Z,7.60
2019-03-25T23:07:58.196Z,7.30
2019-03-25T23:10:29.173Z,7.37
2019-03-25T23:13:00.733Z,7.47
2019-03-25T23:15:32.394Z,7.57
2019-03-25T23:18:03.763Z,8.57
2019-03-25T23:20:35.671Z,7.67
2019-03-25T23:23:06.951Z,8.50
2019-03-25T23:25:38.232Z,8.03
2019-03-25T23:28:09.222Z,7.90
2019-03-25T23:30:40.728Z,7.40
2019-03-25T23:33:11.616Z,7.80
2019-03-25T23:35:43.029Z,8.00
2019-03-25T23:38:14.028Z,7.97
2019-03-25T23:40:45.226Z,7.73
2019-03-25T23:43:16.746Z,7.93
2019-03-25T23:45:47.527Z,7.27
2019-03-25T23:48:18.447Z,7.37
2019-03-25T23:50:49.729Z,6.93
2019-03-25T23:53:22.285Z,7.57
2019-03-25T23:55:53.704Z,8.07
2019-03-25T23:58:24.787Z,7.20
